^^
Saratoga-Weather Station Historical Data
Daily Summary for August 06, 2022 Units:  English    Metric   Both
Daily Weekly Monthly Yearly Custom
  High: Low: Average:
Temperature: 65.7 °F 62.1 °F 64 °F
Dew Point: 55.6 °F 51.8 °F 53.6 °F
Humidity: 70% 68% 69%
Wind Speed: 6mph 0mph 2.1mph
Wind Gust: 8mph - -
Wind- - West
Pressure: 30.2 in 30.2 in -
Precipitation: 0 in    
Historical Graphs
 
 
Tabular Data for August 06, 2022
Time Temperature Dew Point Pressure Wind Wind Speed Wind Gust Humidity Rainfall Rate (Hourly) solar
00:04 65.7 °F 55.6 °F 30.2 in WSW 2.9 mph 4 mph 70% 0 in 0 W/m2
00:09 65.7 °F 55.6 °F 30.2 in NNW 2.9 mph 4 mph 70% 0 in 0 W/m2
00:14 65.7 °F 55.6 °F 30.2 in West 2 mph 6 mph 70% 0 in 0 W/m2
00:19 65.5 °F 55.4 °F 30.2 in West 2.9 mph 3 mph 70% 0 in 0 W/m2
00:24 65.5 °F 55.4 °F 30.2 in WNW 2.9 mph 5 mph 70% 0 in 0 W/m2
00:29 65.3 °F 55.2 °F 30.2 in WSW 2.9 mph 4 mph 70% 0 in 0 W/m2
00:34 65.1 °F 55 °F 30.2 in NNW 0.9 mph 7 mph 70% 0 in 0 W/m2
00:39 65.1 °F 54.7 °F 30.2 in WSW 2.9 mph 4 mph 69% 0 in 0 W/m2
00:44 64.9 °F 54.5 °F 30.2 in WNW 2 mph 7 mph 69% 0 in 0 W/m2
00:49 64.9 °F 54.5 °F 30.2 in NW 0.9 mph 4 mph 69% 0 in 0 W/m2
00:54 64.8 °F 54.3 °F 30.2 in WSW 2.9 mph 3 mph 69% 0 in 0 W/m2
00:59 64.8 °F 54.7 °F 30.2 in NW 0.9 mph 4 mph 70% 0 in 0 W/m2
01:04 64.6 °F 54.5 °F 30.2 in West 2 mph 2 mph 70% 0 in 0 W/m2
01:09 64.4 °F 54.3 °F 30.2 in Calm   3 mph 70% 0 in 0 W/m2
01:14 64.2 °F 53.8 °F 30.2 in NW 2 mph 3 mph 69% 0 in 0 W/m2
01:19 64 °F 53.6 °F 30.2 in North 2.9 mph 3 mph 69% 0 in 0 W/m2
01:24 64 °F 53.6 °F 30.2 in NE 0.9 mph 6 mph 69% 0 in 0 W/m2
01:29 64 °F 53.6 °F 30.2 in NE 2 mph 2 mph 69% 0 in 0 W/m2
01:35 63.9 °F 53.4 °F 30.2 in WSW 2 mph 8 mph 69% 0 in 0 W/m2
01:40 63.9 °F 53.4 °F 30.2 in NNW 0.9 mph 6 mph 69% 0 in 0 W/m2
01:45 63.7 °F 52.9 °F 30.2 in NNW 2 mph 8 mph 68% 0 in 0 W/m2
01:50 63.7 °F 53.2 °F 30.2 in NW 0.9 mph 4 mph 69% 0 in 0 W/m2
01:55 63.3 °F 52.5 °F 30.2 in NW 2.9 mph 4 mph 68% 0 in 0 W/m2
02:00 63.3 °F 52.5 °F 30.2 in WNW 2 mph 8 mph 68% 0 in 0 W/m2
02:05 63.1 °F 52.3 °F 30.2 in North 0.9 mph 6 mph 68% 0 in 0 W/m2
02:10 63 °F 52.2 °F 30.2 in West 2.9 mph 7 mph 68% 0 in 0 W/m2
02:15 63 °F 52.7 °F 30.2 in NNW 2 mph 2 mph 69% 0 in 0 W/m2
02:20 62.8 °F 52.5 °F 30.2 in SW 0.9 mph 7 mph 69% 0 in 0 W/m2
02:25 62.4 °F 52.2 °F 30.2 in West 2.9 mph 4 mph 69% 0 in 0 W/m2
02:30 62.2 °F 52 °F 30.2 in West 2.9 mph 5 mph 69% 0 in 0 W/m2
02:35 62.2 °F 52 °F 30.2 in West 6 mph 7 mph 69% 0 in 0 W/m2
02:40 62.1 °F 51.8 °F 30.2 in Calm   4 mph 69% 0 in 0 W/m2
02:45 62.1 °F 52.2 °F 30.2 in WNW 2.9 mph 7 mph 70% 0 in 0 W/m2
Juneau County Weather
Compliments of Weather Underground - 2 mb